createdAt,value
2022-11-15T00:00:05.039Z,1.71
2022-11-15T00:01:05.052Z,0.94
2022-11-15T00:02:05.115Z,0.85
2022-11-15T00:03:05.069Z,0.88
2022-11-15T00:04:05.082Z,1.26
2022-11-15T00:05:05.114Z,1.16
2022-11-15T00:06:05.107Z,1.00
2022-11-15T00:07:05.197Z,0.48
2022-11-15T00:08:05.120Z,1.44
2022-11-15T00:09:05.142Z,1.07
2022-11-15T00:10:05.186Z,1.95
2022-11-15T00:11:05.157Z,0.73
2022-11-15T00:12:05.184Z,0.99
2022-11-15T00:13:05.183Z,0.92
2022-11-15T00:14:05.260Z,1.02
2022-11-15T00:15:05.244Z,1.11
2022-11-15T00:16:05.221Z,0.70
2022-11-15T00:17:05.235Z,1.19
2022-11-15T00:18:05.251Z,0.85
2022-11-15T00:19:05.259Z,1.04
2022-11-15T00:20:05.275Z,1.16
2022-11-15T00:21:05.276Z,0.55
2022-11-15T00:22:05.296Z,0.88
2022-11-15T00:23:05.312Z,1.67
2022-11-15T00:24:05.326Z,0.40
2022-11-15T00:25:05.299Z,0.17
2022-11-15T00:26:05.321Z,0.03
2022-11-15T00:27:07.923Z,0.53
2022-11-15T00:28:05.363Z,0.30
2022-11-15T00:29:05.317Z,1.00
2022-11-15T00:30:05.323Z,0.45
2022-11-15T00:31:05.392Z,0.75
2022-11-15T00:32:05.340Z,0.76
2022-11-15T00:33:05.385Z,2.18
2022-11-15T00:34:05.351Z,1.16
2022-11-15T00:35:05.366Z,1.34
2022-11-15T00:36:05.361Z,1.35
2022-11-15T00:37:05.357Z,0.98
2022-11-15T00:38:05.376Z,1.38
2022-11-15T00:39:05.363Z,0.95
2022-11-15T00:40:05.369Z,0.98
2022-11-15T00:41:09.299Z,2.22
2022-11-15T00:42:05.379Z,1.94
2022-11-15T00:43:05.360Z,0.56
2022-11-15T00:44:05.368Z,0.45
2022-11-15T00:45:05.380Z,0.28
2022-11-15T00:46:05.385Z,0.72
2022-11-15T00:47:05.382Z,0.47
2022-11-15T00:48:05.366Z,0.03
2022-11-15T00:49:05.380Z,0.04
2022-11-15T00:50:05.386Z,0.87
2022-11-15T00:51:05.370Z,0.85
2022-11-15T00:52:05.393Z,0.08
2022-11-15T00:53:05.411Z,0.81
2022-11-15T00:54:05.377Z,0.68
2022-11-15T00:55:05.379Z,0.38
2022-11-15T00:56:05.381Z,0.51
2022-11-15T00:57:05.389Z,0.70
2022-11-15T00:58:05.423Z,0.68
2022-11-15T00:59:05.387Z,0.25
2022-11-15T01:00:05.350Z,0.61
2022-11-15T01:01:05.444Z,0.08
2022-11-15T01:02:05.365Z,0.61
2022-11-15T01:03:05.382Z,0.16
2022-11-15T01:04:05.421Z,0.33
2022-11-15T01:05:05.399Z,0.04
2022-11-15T01:06:05.395Z,0.15
2022-11-15T01:07:05.434Z,0.15
2022-11-15T01:08:05.391Z,0.84
2022-11-15T01:09:05.403Z,0.35
2022-11-15T01:10:05.415Z,0.20
2022-11-15T01:11:05.410Z,0.41
2022-11-15T01:12:05.400Z,0.74
2022-11-15T01:13:05.397Z,1.19
2022-11-15T01:14:05.430Z,0.39
2022-11-15T01:15:05.414Z,0.76
2022-11-15T01:16:05.416Z,0.41
2022-11-15T01:17:05.402Z,0.46
2022-11-15T01:18:05.395Z,0.96
2022-11-15T01:19:05.413Z,0.73
2022-11-15T01:20:05.405Z,0.69
2022-11-15T01:21:05.417Z,0.46
2022-11-15T01:22:05.408Z,1.33
2022-11-15T01:23:05.428Z,0.57
2022-11-15T01:24:05.444Z,1.21
2022-11-15T01:25:20.733Z,1.50
2022-11-15T01:26:20.721Z,0.99
2022-11-15T01:27:20.725Z,0.83
2022-11-15T01:28:20.741Z,1.23
2022-11-15T01:29:20.766Z,0.63
2022-11-15T01:30:20.736Z,2.02
2022-11-15T01:31:20.738Z,1.45
2022-11-15T01:32:20.743Z,1.24
2022-11-15T01:33:20.748Z,0.71
2022-11-15T01:34:20.738Z,0.95
2022-11-15T01:35:20.758Z,0.77
2022-11-15T01:36:20.737Z,1.39
2022-11-15T01:37:20.737Z,1.15
2022-11-15T01:38:20.725Z,1.20
2022-11-15T01:39:20.743Z,1.01
2022-11-15T01:40:20.762Z,1.18
2022-11-15T01:41:20.741Z,0.83
2022-11-15T01:42:20.737Z,0.86
2022-11-15T01:43:20.779Z,1.30
2022-11-15T01:44:20.744Z,2.27
2022-11-15T01:45:20.752Z,1.57
2022-11-15T01:46:20.761Z,1.47
2022-11-15T01:47:20.764Z,0.62
2022-11-15T01:48:20.754Z,1.71
2022-11-15T01:49:20.751Z,1.23
2022-11-15T01:50:20.746Z,0.68
2022-11-15T01:51:20.752Z,1.57
2022-11-15T01:52:20.764Z,1.98
2022-11-15T01:53:20.757Z,1.82
2022-11-15T01:54:20.754Z,1.70
2022-11-15T01:55:20.754Z,1.11
2022-11-15T01:56:20.775Z,1.70
2022-11-15T01:57:20.755Z,1.87
2022-11-15T01:58:20.754Z,1.85
2022-11-15T01:59:20.762Z,1.24
2022-11-15T02:00:20.756Z,0.85
2022-11-15T02:01:20.959Z,0.98
2022-11-15T02:02:20.922Z,2.21
2022-11-15T02:03:20.960Z,0.46
2022-11-15T02:04:20.948Z,1.39
2022-11-15T02:05:20.947Z,1.65
2022-11-15T02:06:20.955Z,2.01
2022-11-15T02:07:21.124Z,1.66
2022-11-15T02:08:21.227Z,1.40
2022-11-15T02:09:21.011Z,0.60
2022-11-15T02:10:21.028Z,0.53
2022-11-15T02:11:21.001Z,0.02
2022-11-15T02:12:21.063Z,1.47
2022-11-15T02:13:21.031Z,0.93
2022-11-15T02:14:21.060Z,0.00
2022-11-15T02:15:21.095Z,0.28
2022-11-15T02:16:21.082Z,1.02
2022-11-15T02:17:21.109Z,0.68
2022-11-15T02:18:21.098Z,1.24
2022-11-15T02:19:21.116Z,3.03
2022-11-15T02:20:21.145Z,1.11
2022-11-15T02:21:21.147Z,1.38
2022-11-15T02:22:21.163Z,0.74
2022-11-15T02:23:21.179Z,1.03
2022-11-15T02:24:21.183Z,0.19
2022-11-15T02:25:21.191Z,1.26
2022-11-15T02:26:21.201Z,1.10
2022-11-15T02:27:21.219Z,0.01
2022-11-15T02:28:21.235Z,1.95
2022-11-15T02:29:21.250Z,1.14
2022-11-15T02:30:21.250Z,0.89
2022-11-15T02:31:21.256Z,0.16
2022-11-15T02:32:21.285Z,0.71
2022-11-15T02:33:21.415Z,0.86
2022-11-15T02:34:21.304Z,0.54
2022-11-15T02:35:21.326Z,0.53
2022-11-15T02:36:21.323Z,1.28
2022-11-15T02:37:21.350Z,0.84
2022-11-15T02:38:21.374Z,1.24
2022-11-15T02:39:21.364Z,1.15
2022-11-15T02:40:21.412Z,0.85
2022-11-15T02:41:21.385Z,1.46
2022-11-15T02:42:21.404Z,0.72
2022-11-15T02:43:21.408Z,1.63
2022-11-15T02:44:21.424Z,0.88
2022-11-15T02:45:21.443Z,0.94
2022-11-15T02:46:21.451Z,0.61
2022-11-15T02:47:21.447Z,0.49
2022-11-15T02:48:21.476Z,0.62
2022-11-15T02:49:21.493Z,0.24
2022-11-15T02:50:21.519Z,0.27
2022-11-15T02:51:21.506Z,0.66
2022-11-15T02:52:21.521Z,1.22
2022-11-15T02:53:21.513Z,1.44
2022-11-15T02:54:21.535Z,0.77
2022-11-15T02:55:21.563Z,0.39
2022-11-15T02:56:21.569Z,1.03
2022-11-15T02:57:21.587Z,0.22
2022-11-15T02:58:21.596Z,0.42
2022-11-15T02:59:21.614Z,0.43
2022-11-15T03:00:21.613Z,0.05
2022-11-15T03:01:21.664Z,0.10
2022-11-15T03:02:21.621Z,0.44
2022-11-15T03:03:21.644Z,0.50
2022-11-15T03:04:21.664Z,0.07
2022-11-15T03:05:21.693Z,0.00
2022-11-15T03:06:21.687Z,0.01
2022-11-15T03:07:21.761Z,0.00
2022-11-15T03:08:21.723Z,0.00
2022-11-15T03:09:21.711Z,0.10
2022-11-15T03:10:21.779Z,0.33
2022-11-15T03:11:21.735Z,0.09
2022-11-15T03:12:21.748Z,0.02
2022-11-15T03:13:21.762Z,0.82
2022-11-15T03:14:21.776Z,0.85
2022-11-15T03:15:21.852Z,0.61
2022-11-15T03:16:21.806Z,0.01
2022-11-15T03:17:21.839Z,0.12
2022-11-15T03:18:21.827Z,0.87
2022-11-15T03:19:21.835Z,0.63
2022-11-15T03:20:21.870Z,0.52
2022-11-15T03:21:21.880Z,0.02
2022-11-15T03:22:21.863Z,0.00
2022-11-15T03:23:21.889Z,0.00
2022-11-15T03:24:25.889Z,0.95
2022-11-15T03:25:21.969Z,1.29
2022-11-15T03:26:21.917Z,1.00
2022-11-15T03:27:21.909Z,1.46
2022-11-15T03:28:21.910Z,0.14
2022-11-15T03:29:21.918Z,0.00
2022-11-15T03:30:21.932Z,0.00
2022-11-15T03:31:21.956Z,1.06
2022-11-15T03:32:21.915Z,0.89
2022-11-15T03:33:21.906Z,0.66
2022-11-15T03:34:21.932Z,0.00
2022-11-15T03:35:21.918Z,0.79
2022-11-15T03:36:21.904Z,0.39
2022-11-15T03:37:22.029Z,0.72
2022-11-15T03:38:21.995Z,1.83
2022-11-15T03:39:21.924Z,0.83
2022-11-15T03:40:21.952Z,0.07
2022-11-15T03:41:21.920Z,0.03
2022-11-15T03:42:21.924Z,0.01
2022-11-15T03:43:21.966Z,0.62
2022-11-15T03:44:21.917Z,0.57
2022-11-15T03:45:21.956Z,0.61
2022-11-15T03:46:21.925Z,1.77
2022-11-15T03:47:21.926Z,1.57
2022-11-15T03:48:21.954Z,0.60
2022-11-15T03:49:21.941Z,0.60
2022-11-15T03:50:21.953Z,0.91
2022-11-15T03:51:21.941Z,1.15
2022-11-15T03:52:21.936Z,0.60
2022-11-15T03:53:21.931Z,0.00
2022-11-15T03:54:21.940Z,0.84
2022-11-15T03:55:21.941Z,0.66
2022-11-15T03:56:21.933Z,0.29
2022-11-15T03:57:21.944Z,1.38
2022-11-15T03:58:21.937Z,0.11
2022-11-15T03:59:21.942Z,0.19
2022-11-15T04:00:21.969Z,0.95
2022-11-15T04:01:21.979Z,1.03
2022-11-15T04:02:21.943Z,0.59
2022-11-15T04:03:21.992Z,0.25
2022-11-15T04:04:21.949Z,0.19
2022-11-15T04:05:21.985Z,0.75
2022-11-15T04:06:22.264Z,0.88
2022-11-15T04:07:22.012Z,0.56
2022-11-15T04:08:21.959Z,0.07
2022-11-15T04:09:21.950Z,0.10
2022-11-15T04:10:21.936Z,0.12
2022-11-15T04:11:21.968Z,0.58
2022-11-15T04:12:21.955Z,0.01
2022-11-15T04:13:22.004Z,0.53
2022-11-15T04:14:22.006Z,0.53
2022-11-15T04:15:21.971Z,0.01
2022-11-15T04:16:22.015Z,0.38
2022-11-15T04:17:21.968Z,0.74
2022-11-15T04:18:21.963Z,0.29
2022-11-15T04:19:21.963Z,0.00
2022-11-15T04:20:21.961Z,1.08
2022-11-15T04:21:21.984Z,0.00
2022-11-15T04:22:21.961Z,0.62
2022-11-15T04:23:21.976Z,0.33
2022-11-15T04:24:22.008Z,0.19
2022-11-15T04:25:24.069Z,0.38
2022-11-15T04:26:21.981Z,1.73
2022-11-15T04:27:22.042Z,1.72
2022-11-15T04:28:21.969Z,0.68
2022-11-15T04:29:21.967Z,0.71
2022-11-15T04:30:21.978Z,0.76
2022-11-15T04:31:22.012Z,0.90
2022-11-15T04:32:22.042Z,0.14
2022-11-15T04:33:21.973Z,0.31
2022-11-15T04:34:21.976Z,1.39
2022-11-15T04:35:21.990Z,1.34
2022-11-15T04:36:21.994Z,1.14
2022-11-15T04:37:21.989Z,1.01
2022-11-15T04:38:22.004Z,1.34
2022-11-15T04:39:22.032Z,0.68
2022-11-15T04:40:22.021Z,1.25
2022-11-15T04:41:21.983Z,1.63
2022-11-15T04:42:21.992Z,1.28
2022-11-15T04:43:21.997Z,0.49
2022-11-15T04:44:22.035Z,0.98
2022-11-15T04:45:21.999Z,0.33
2022-11-15T04:46:21.998Z,1.51
2022-11-15T04:47:22.021Z,0.29
2022-11-15T04:48:22.028Z,1.32
2022-11-15T04:49:22.005Z,1.97
2022-11-15T04:50:21.985Z,1.68
2022-11-15T04:51:21.984Z,0.94
2022-11-15T04:52:21.994Z,0.62
2022-11-15T04:53:22.000Z,0.28
2022-11-15T04:54:22.046Z,0.00
2022-11-15T04:55:22.006Z,0.82
2022-11-15T04:56:22.015Z,0.85
2022-11-15T04:57:22.049Z,0.47
2022-11-15T04:58:22.012Z,0.05
2022-11-15T04:59:22.007Z,0.57
2022-11-15T05:00:22.011Z,1.23
2022-11-15T05:01:22.039Z,0.25
2022-11-15T05:02:21.983Z,0.05
2022-11-15T05:03:22.013Z,0.21
2022-11-15T05:04:22.064Z,0.29
2022-11-15T05:05:22.034Z,0.30
2022-11-15T05:06:22.049Z,1.21
2022-11-15T05:07:22.048Z,0.16
2022-11-15T05:08:22.067Z,0.86
2022-11-15T05:09:22.008Z,0.49
2022-11-15T05:10:22.013Z,0.35
2022-11-15T05:11:22.031Z,0.16
2022-11-15T05:12:22.016Z,0.00
2022-11-15T05:13:22.008Z,0.00
2022-11-15T05:14:22.017Z,0.00
2022-11-15T05:15:22.028Z,0.00
2022-11-15T05:16:22.074Z,0.36
2022-11-15T05:17:22.024Z,0.13
2022-11-15T05:18:23.754Z,0.00
2022-11-15T05:19:22.029Z,0.00
2022-11-15T05:20:22.033Z,0.00
2022-11-15T05:21:22.025Z,0.09
2022-11-15T05:22:22.073Z,0.01
2022-11-15T05:23:22.030Z,0.01
2022-11-15T05:24:22.069Z,0.25
2022-11-15T05:25:22.085Z,0.01
2022-11-15T05:26:22.023Z,0.00
2022-11-15T05:27:22.042Z,0.00
2022-11-15T05:28:22.034Z,0.01
2022-11-15T05:29:22.024Z,0.45
2022-11-15T05:30:22.060Z,0.21
2022-11-15T05:31:22.052Z,0.05
2022-11-15T05:32:22.039Z,0.00
2022-11-15T05:33:22.045Z,0.00
2022-11-15T05:34:22.035Z,0.00
2022-11-15T05:35:22.107Z,0.00
2022-11-15T05:36:22.052Z,0.02
2022-11-15T05:37:22.043Z,0.00
2022-11-15T05:38:22.082Z,0.00
2022-11-15T05:39:22.056Z,0.00
2022-11-15T05:40:22.046Z,0.00
2022-11-15T05:41:22.051Z,0.00
2022-11-15T05:42:22.045Z,0.00
2022-11-15T05:43:22.063Z,0.00
2022-11-15T05:44:22.085Z,0.00
2022-11-15T05:45:26.726Z,0.00
2022-11-15T05:46:22.136Z,0.00
2022-11-15T05:47:22.083Z,0.00
2022-11-15T05:48:22.105Z,0.00
2022-11-15T05:49:22.137Z,0.00
2022-11-15T05:50:22.156Z,0.00
2022-11-15T05:51:22.086Z,0.00
2022-11-15T05:52:22.105Z,0.00
2022-11-15T05:53:22.126Z,0.00
2022-11-15T05:54:22.081Z,0.00
2022-11-15T05:55:22.106Z,0.00
2022-11-15T05:56:22.103Z,0.00
2022-11-15T05:57:22.154Z,0.00
2022-11-15T05:58:22.100Z,0.00
2022-11-15T05:59:22.150Z,0.00
2022-11-15T06:00:22.128Z,0.00
2022-11-15T06:01:22.096Z,0.00
2022-11-15T06:02:22.168Z,0.00
2022-11-15T06:03:22.089Z,0.00
2022-11-15T06:04:22.148Z,0.00
2022-11-15T06:05:22.115Z,0.00
2022-11-15T06:06:22.160Z,0.00
2022-11-15T06:07:22.274Z,0.00
2022-11-15T06:08:22.104Z,0.00
2022-11-15T06:09:22.118Z,0.00
2022-11-15T06:10:22.105Z,0.00
2022-11-15T06:11:22.126Z,0.00
2022-11-15T06:12:22.113Z,0.00
2022-11-15T06:13:22.106Z,0.00
2022-11-15T06:14:22.119Z,0.00
2022-11-15T06:15:22.123Z,0.00
2022-11-15T06:16:22.128Z,0.00
2022-11-15T06:17:22.147Z,0.00
2022-11-15T06:18:22.118Z,0.00
2022-11-15T06:19:22.164Z,0.00
2022-11-15T06:20:22.122Z,0.00
2022-11-15T06:21:22.112Z,0.00
2022-11-15T06:22:22.137Z,0.00
2022-11-15T06:23:22.122Z,0.00
2022-11-15T06:24:22.164Z,0.00
2022-11-15T06:25:22.130Z,0.00
2022-11-15T06:26:22.129Z,0.00
2022-11-15T06:27:22.194Z,0.00
2022-11-15T06:28:22.128Z,0.00
2022-11-15T06:29:22.182Z,0.00
2022-11-15T06:30:22.131Z,0.00
2022-11-15T06:31:22.147Z,0.00
2022-11-15T06:32:22.139Z,0.00
2022-11-15T06:33:22.139Z,0.00
2022-11-15T06:34:22.139Z,0.00
2022-11-15T06:35:22.153Z,0.00
2022-11-15T06:36:22.186Z,0.00
2022-11-15T06:37:22.175Z,0.00
2022-11-15T06:38:22.156Z,0.00
2022-11-15T06:39:22.149Z,0.00
2022-11-15T06:40:22.181Z,0.00
2022-11-15T06:41:22.195Z,0.00
2022-11-15T06:42:22.165Z,0.00
2022-11-15T06:43:22.166Z,0.00
2022-11-15T06:44:22.141Z,0.00
2022-11-15T06:45:22.149Z,0.00
2022-11-15T06:46:22.201Z,0.00
2022-11-15T06:47:22.156Z,0.00
2022-11-15T06:48:22.152Z,0.00
2022-11-15T06:49:22.164Z,0.00
2022-11-15T06:50:22.150Z,0.00
2022-11-15T06:51:22.152Z,0.00
2022-11-15T06:52:22.160Z,0.00
2022-11-15T06:53:22.169Z,0.00
2022-11-15T06:54:22.169Z,0.00
2022-11-15T06:55:22.176Z,0.00
2022-11-15T06:56:22.161Z,0.00
2022-11-15T06:57:22.196Z,0.00
2022-11-15T06:58:22.163Z,0.00
2022-11-15T06:59:22.164Z,0.00
2022-11-15T07:00:22.184Z,0.00
2022-11-15T07:01:22.209Z,0.00
2022-11-15T07:02:22.166Z,0.19
2022-11-15T07:03:22.181Z,0.46
2022-11-15T07:04:22.173Z,0.54
2022-11-15T07:05:22.234Z,0.00
2022-11-15T07:06:22.204Z,0.00
2022-11-15T07:07:22.229Z,0.00
2022-11-15T07:08:22.229Z,0.29
2022-11-15T07:09:22.237Z,0.25
2022-11-15T07:10:22.250Z,0.85
2022-11-15T07:11:22.262Z,1.60
2022-11-15T07:12:22.271Z,0.62
2022-11-15T07:13:22.289Z,0.02
2022-11-15T07:14:22.338Z,0.00
2022-11-15T07:15:22.300Z,0.00
2022-11-15T07:16:22.335Z,0.00
2022-11-15T07:17:22.321Z,0.00
2022-11-15T07:18:22.375Z,0.76
2022-11-15T07:19:22.345Z,0.01
2022-11-15T07:20:22.373Z,0.02
2022-11-15T07:21:26.237Z,0.00
2022-11-15T07:22:22.371Z,0.00
2022-11-15T07:23:22.377Z,0.00
2022-11-15T07:24:22.383Z,0.00
2022-11-15T07:25:44.719Z,0.00
2022-11-15T07:26:44.714Z,0.00
2022-11-15T07:27:44.751Z,0.00
2022-11-15T07:28:44.741Z,0.00
2022-11-15T07:29:44.734Z,0.00
2022-11-15T07:30:45.462Z,0.01
2022-11-15T07:31:44.752Z,0.08
2022-11-15T07:32:44.739Z,0.00
2022-11-15T07:33:44.734Z,0.00
2022-11-15T07:34:44.742Z,0.00
2022-11-15T07:35:44.754Z,0.00
2022-11-15T07:36:44.769Z,0.15
2022-11-15T07:37:44.769Z,0.00
2022-11-15T07:38:44.744Z,0.00
2022-11-15T07:39:44.760Z,0.00
2022-11-15T07:40:44.755Z,0.00
2022-11-15T07:41:44.748Z,0.00
2022-11-15T07:42:44.748Z,0.00
2022-11-15T07:43:44.755Z,0.00
2022-11-15T07:44:44.749Z,0.00
2022-11-15T07:45:44.766Z,0.00
2022-11-15T07:46:44.764Z,0.00
2022-11-15T07:47:44.763Z,0.00
2022-11-15T07:48:45.821Z,0.00
2022-11-15T07:49:44.788Z,0.00
2022-11-15T07:50:44.756Z,0.00
2022-11-15T07:51:44.776Z,0.00
2022-11-15T07:52:44.762Z,0.00
2022-11-15T07:53:44.764Z,0.00
2022-11-15T07:54:44.756Z,0.00
2022-11-15T07:55:44.781Z,0.00
2022-11-15T07:56:44.784Z,0.00
2022-11-15T07:57:44.767Z,0.00
2022-11-15T07:58:44.781Z,0.00
2022-11-15T07:59:44.757Z,0.00
2022-11-15T08:00:44.801Z,0.00
2022-11-15T08:01:44.987Z,0.00
2022-11-15T08:02:45.055Z,0.00
2022-11-15T08:03:44.906Z,0.00
2022-11-15T08:04:44.921Z,0.00
2022-11-15T08:05:44.974Z,0.00
2022-11-15T08:06:45.070Z,0.00
2022-11-15T08:07:44.964Z,0.00
2022-11-15T08:08:44.981Z,0.00
2022-11-15T08:09:45.068Z,0.00
2022-11-15T08:10:45.011Z,0.00
2022-11-15T08:11:45.049Z,0.00
2022-11-15T08:12:45.160Z,0.00
2022-11-15T08:13:45.043Z,0.00
2022-11-15T08:14:45.044Z,0.00
2022-11-15T08:15:45.085Z,0.00
2022-11-15T08:16:45.081Z,0.00
2022-11-15T08:17:45.114Z,0.00
2022-11-15T08:18:45.100Z,0.00
2022-11-15T08:19:45.115Z,0.00
2022-11-15T08:20:45.139Z,0.00
2022-11-15T08:21:45.144Z,0.00
2022-11-15T08:22:45.174Z,0.00
2022-11-15T08:23:45.179Z,0.00
2022-11-15T08:24:45.187Z,0.00
2022-11-15T08:25:45.188Z,0.00
2022-11-15T08:26:45.246Z,0.00
2022-11-15T08:27:45.236Z,0.00
2022-11-15T08:28:45.225Z,0.00
2022-11-15T08:29:45.268Z,0.00
2022-11-15T08:30:45.252Z,0.00
2022-11-15T08:31:45.277Z,0.11
2022-11-15T08:32:45.305Z,0.18
2022-11-15T08:33:45.276Z,0.00
2022-11-15T08:34:45.306Z,0.00
2022-11-15T08:35:45.314Z,0.00
2022-11-15T08:36:46.243Z,0.00
2022-11-15T08:37:45.345Z,0.00
2022-11-15T08:38:45.403Z,0.00
2022-11-15T08:39:45.361Z,0.00
2022-11-15T08:40:45.372Z,0.00
2022-11-15T08:41:45.503Z,0.00
2022-11-15T08:42:45.414Z,0.04
2022-11-15T08:43:45.409Z,0.76
2022-11-15T08:44:45.431Z,1.12
2022-11-15T08:45:45.419Z,0.03
2022-11-15T08:46:45.441Z,0.00
2022-11-15T08:47:49.713Z,0.13
2022-11-15T08:48:45.446Z,0.37
2022-11-15T08:49:45.448Z,0.74
2022-11-15T08:50:45.456Z,0.01
2022-11-15T08:51:45.428Z,0.03
2022-11-15T08:52:45.451Z,0.18
2022-11-15T08:53:45.492Z,0.94
2022-11-15T08:54:45.468Z,0.33
2022-11-15T08:55:45.471Z,0.00
2022-11-15T08:56:45.458Z,0.00
2022-11-15T08:57:45.464Z,0.00
2022-11-15T08:58:45.484Z,0.00
2022-11-15T08:59:45.469Z,0.00
2022-11-15T09:00:45.477Z,0.00
2022-11-15T09:01:45.561Z,0.51
2022-11-15T09:02:45.472Z,0.44
2022-11-15T09:03:45.481Z,0.06
2022-11-15T09:04:45.459Z,0.00
2022-11-15T09:05:45.478Z,0.00
2022-11-15T09:06:45.523Z,0.34
2022-11-15T09:07:45.478Z,0.52
2022-11-15T09:08:48.105Z,0.01
2022-11-15T09:09:45.497Z,0.00
2022-11-15T09:10:45.491Z,0.00
2022-11-15T09:11:45.476Z,0.00
2022-11-15T09:12:45.487Z,0.00
2022-11-15T09:13:45.502Z,0.00
2022-11-15T09:14:45.482Z,0.78
2022-11-15T09:15:45.500Z,0.34
2022-11-15T09:16:45.482Z,0.12
2022-11-15T09:17:45.504Z,0.03
2022-11-15T09:18:45.488Z,0.63
2022-11-15T09:19:45.491Z,0.03
2022-11-15T09:20:45.488Z,0.37
2022-11-15T09:21:45.499Z,1.02
2022-11-15T09:22:45.491Z,0.26
2022-11-15T09:23:45.497Z,0.01
2022-11-15T09:24:45.514Z,0.55
2022-11-15T09:25:45.510Z,0.18
2022-11-15T09:26:45.502Z,1.13
2022-11-15T09:27:45.493Z,0.37
2022-11-15T09:28:45.498Z,0.05
2022-11-15T09:29:45.502Z,0.00
2022-11-15T09:30:45.524Z,0.00
2022-11-15T09:31:45.497Z,0.00
2022-11-15T09:32:45.494Z,0.00
2022-11-15T09:33:45.508Z,0.00
2022-11-15T09:34:45.500Z,0.76
2022-11-15T09:35:45.511Z,0.86
2022-11-15T09:36:45.511Z,0.43
2022-11-15T09:37:45.517Z,0.37
2022-11-15T09:38:45.505Z,1.23
2022-11-15T09:39:45.514Z,0.40
2022-11-15T09:40:45.537Z,0.37
2022-11-15T09:41:45.507Z,0.39
2022-11-15T09:42:45.513Z,0.83
2022-11-15T09:43:45.516Z,0.01
2022-11-15T09:44:45.520Z,0.04
2022-11-15T09:45:45.534Z,0.30
2022-11-15T09:46:45.511Z,0.30
2022-11-15T09:47:45.517Z,0.00
2022-11-15T09:48:45.518Z,0.00
2022-11-15T09:49:45.521Z,0.04
2022-11-15T09:50:45.511Z,0.30
2022-11-15T09:51:45.528Z,0.47
2022-11-15T09:52:45.542Z,0.00
2022-11-15T09:54:30.340Z,0.00
2022-11-15T09:54:53.262Z,0.00
2022-11-15T09:55:45.557Z,0.00
2022-11-15T09:56:45.554Z,0.00
2022-11-15T09:57:45.570Z,0.00
2022-11-15T09:58:45.556Z,0.15
2022-11-15T09:59:45.558Z,0.52
2022-11-15T10:00:47.535Z,0.59
2022-11-15T10:01:45.634Z,0.44
2022-11-15T10:02:45.653Z,0.92
2022-11-15T10:03:45.649Z,0.27
2022-11-15T10:04:45.668Z,1.05
2022-11-15T10:05:45.699Z,0.41
2022-11-15T10:06:45.721Z,0.31
2022-11-15T10:07:45.707Z,0.01
2022-11-15T10:08:45.727Z,0.17
2022-11-15T10:09:45.728Z,0.00
2022-11-15T10:10:45.759Z,0.00
2022-11-15T10:11:45.767Z,0.00
2022-11-15T10:12:45.772Z,0.00
2022-11-15T10:13:45.805Z,0.00
2022-11-15T10:14:48.087Z,0.00
2022-11-15T10:15:45.791Z,0.00
2022-11-15T10:16:45.795Z,0.02
2022-11-15T10:17:45.804Z,0.00
2022-11-15T10:18:45.810Z,0.48
2022-11-15T10:19:45.798Z,0.37
2022-11-15T10:20:45.797Z,0.34
2022-11-15T10:21:45.812Z,0.05
2022-11-15T10:22:45.797Z,0.01
2022-11-15T10:23:45.807Z,1.07
2022-11-15T10:24:45.792Z,1.19
2022-11-15T10:25:45.790Z,0.60
2022-11-15T10:26:45.805Z,1.22
2022-11-15T10:27:45.808Z,0.03
2022-11-15T10:28:45.810Z,0.01
2022-11-15T10:29:45.803Z,0.39
2022-11-15T10:30:45.836Z,0.16
2022-11-15T10:31:45.836Z,0.24
2022-11-15T10:32:45.808Z,0.77
2022-11-15T10:33:45.801Z,0.63
2022-11-15T10:34:45.828Z,0.03
2022-11-15T10:35:45.810Z,0.00
2022-11-15T10:36:50.114Z,0.00
2022-11-15T10:37:45.820Z,0.04
2022-11-15T10:38:45.803Z,0.98
2022-11-15T10:39:45.842Z,0.71
2022-11-15T10:40:45.808Z,0.17
2022-11-15T10:41:45.819Z,0.00
2022-11-15T10:42:45.821Z,1.11
2022-11-15T10:43:45.817Z,1.07
2022-11-15T10:44:45.849Z,0.01
2022-11-15T10:45:45.808Z,0.55
2022-11-15T10:46:46.982Z,0.00
2022-11-15T10:47:45.829Z,0.86
2022-11-15T10:48:45.819Z,0.83
2022-11-15T10:49:45.872Z,0.31
2022-11-15T10:50:45.833Z,0.00
2022-11-15T10:51:45.831Z,0.20
2022-11-15T10:52:45.822Z,0.25
2022-11-15T10:53:45.867Z,0.66
2022-11-15T10:54:45.824Z,0.92
2022-11-15T10:55:45.839Z,0.15
2022-11-15T10:56:45.829Z,0.57
2022-11-15T10:57:45.844Z,0.52
2022-11-15T10:58:45.840Z,0.18
2022-11-15T10:59:46.964Z,0.00
2022-11-15T11:00:45.851Z,0.46
2022-11-15T11:01:45.866Z,0.01
2022-11-15T11:02:45.846Z,0.50
2022-11-15T11:03:45.837Z,1.22
2022-11-15T11:04:45.847Z,0.65
2022-11-15T11:05:45.858Z,0.19
2022-11-15T11:06:45.891Z,0.64
2022-11-15T11:07:45.848Z,0.92
2022-11-15T11:08:45.845Z,0.72
2022-11-15T11:09:45.839Z,2.14
2022-11-15T11:10:51.476Z,1.40
2022-11-15T11:11:45.850Z,0.52
2022-11-15T11:12:45.833Z,0.76
2022-11-15T11:13:45.848Z,0.19
2022-11-15T11:14:45.850Z,2.04
2022-11-15T11:15:45.852Z,0.58
2022-11-15T11:16:45.860Z,0.32
2022-11-15T11:17:45.864Z,0.52
2022-11-15T11:18:45.854Z,0.26
2022-11-15T11:19:45.858Z,0.99
2022-11-15T11:20:45.861Z,0.10
2022-11-15T11:21:45.869Z,0.04
2022-11-15T11:22:45.847Z,1.69
2022-11-15T11:23:45.855Z,0.03
2022-11-15T11:24:45.864Z,0.00
2022-11-15T11:25:45.863Z,0.05
2022-11-15T11:26:45.893Z,1.20
2022-11-15T11:27:45.887Z,1.19
2022-11-15T11:28:45.871Z,0.17
2022-11-15T11:29:45.863Z,0.41
2022-11-15T11:30:45.873Z,1.29
2022-11-15T11:31:45.874Z,0.90
2022-11-15T11:32:45.884Z,0.28
2022-11-15T11:33:45.869Z,0.49
2022-11-15T11:34:45.873Z,0.48
2022-11-15T11:35:45.884Z,0.25
2022-11-15T11:36:45.881Z,0.76
2022-11-15T11:37:45.894Z,0.74
2022-11-15T11:38:45.892Z,0.99
2022-11-15T11:39:45.910Z,1.99
2022-11-15T11:40:45.872Z,0.66
2022-11-15T11:41:45.885Z,0.59
2022-11-15T11:42:45.898Z,1.11
2022-11-15T11:43:45.902Z,0.89
2022-11-15T11:44:45.892Z,1.73
2022-11-15T11:45:47.443Z,2.14
2022-11-15T11:46:45.875Z,1.12
2022-11-15T11:47:45.901Z,0.73
2022-11-15T11:48:45.918Z,0.93
2022-11-15T11:49:46.016Z,0.73
2022-11-15T11:50:45.890Z,0.50
2022-11-15T11:51:45.876Z,0.80
2022-11-15T11:52:45.894Z,1.28
2022-11-15T11:53:45.907Z,1.03
2022-11-15T11:54:45.899Z,0.51
2022-11-15T11:55:45.908Z,0.26
2022-11-15T11:56:45.919Z,0.71
2022-11-15T11:57:45.908Z,0.67
2022-11-15T11:58:45.921Z,1.06
2022-11-15T11:59:45.923Z,1.26
2022-11-15T12:00:45.906Z,1.13
2022-11-15T12:01:46.065Z,0.89
2022-11-15T12:02:45.965Z,0.84
2022-11-15T12:03:45.909Z,0.73
2022-11-15T12:04:45.917Z,1.82
2022-11-15T12:05:45.922Z,1.34
2022-11-15T12:06:45.903Z,0.70
2022-11-15T12:07:45.913Z,0.42
2022-11-15T12:08:45.919Z,1.15
2022-11-15T12:09:45.916Z,1.01
2022-11-15T12:10:45.935Z,1.09
2022-11-15T12:11:45.914Z,1.98
2022-11-15T12:12:45.937Z,2.22
2022-11-15T12:13:45.949Z,0.84
2022-11-15T12:14:45.947Z,0.61
2022-11-15T12:15:46.005Z,1.67
2022-11-15T12:16:45.990Z,0.85
2022-11-15T12:17:46.002Z,1.36
2022-11-15T12:18:46.044Z,0.97
2022-11-15T12:19:46.027Z,0.55
2022-11-15T12:20:46.047Z,1.31
2022-11-15T12:21:46.043Z,0.82
2022-11-15T12:22:46.050Z,0.63
2022-11-15T12:23:46.065Z,0.50
2022-11-15T12:24:46.078Z,0.61
2022-11-15T12:25:46.098Z,1.32
2022-11-15T12:26:46.107Z,1.64
2022-11-15T12:27:46.106Z,1.31
2022-11-15T12:29:05.812Z,1.88
2022-11-15T12:29:46.126Z,0.13
2022-11-15T12:30:46.151Z,0.83
2022-11-15T12:31:46.121Z,1.76
2022-11-15T12:32:46.141Z,1.22
2022-11-15T12:33:46.144Z,1.44
2022-11-15T12:34:46.136Z,1.38
2022-11-15T12:35:46.151Z,0.05
2022-11-15T12:36:46.160Z,0.23
2022-11-15T12:37:46.117Z,1.08
2022-11-15T12:38:46.154Z,0.88
2022-11-15T12:39:46.169Z,0.20
2022-11-15T12:40:46.148Z,0.38
2022-11-15T12:41:46.155Z,0.34
2022-11-15T12:42:46.141Z,0.29
2022-11-15T12:43:46.130Z,0.32
2022-11-15T12:44:46.358Z,0.59
2022-11-15T12:45:46.192Z,0.85
2022-11-15T12:46:46.156Z,1.69
2022-11-15T12:47:46.148Z,1.02
2022-11-15T12:48:46.162Z,1.03
2022-11-15T12:49:46.162Z,1.23
2022-11-15T12:50:46.166Z,0.23
2022-11-15T12:51:46.153Z,0.44
2022-11-15T12:52:46.151Z,0.02
2022-11-15T12:53:46.166Z,0.72
2022-11-15T12:54:46.164Z,0.13
2022-11-15T12:55:46.160Z,0.17
2022-11-15T12:56:46.356Z,0.63
2022-11-15T12:57:46.166Z,1.27
2022-11-15T12:58:46.153Z,1.21
2022-11-15T12:59:46.163Z,0.89
2022-11-15T13:00:46.179Z,0.01
2022-11-15T13:01:46.227Z,0.82
2022-11-15T13:02:46.171Z,0.03
2022-11-15T13:03:46.169Z,0.00
2022-11-15T13:04:46.169Z,0.02
2022-11-15T13:05:46.176Z,0.93
2022-11-15T13:06:46.336Z,1.32
2022-11-15T13:07:46.166Z,1.50
2022-11-15T13:08:46.174Z,0.05
2022-11-15T13:09:46.171Z,0.01
2022-11-15T13:10:46.164Z,0.36
2022-11-15T13:11:46.167Z,0.80
2022-11-15T13:12:46.172Z,0.09
2022-11-15T13:13:46.183Z,0.77
2022-11-15T13:14:46.187Z,0.60
2022-11-15T13:15:46.192Z,0.46
2022-11-15T13:16:46.187Z,0.41
2022-11-15T13:17:46.162Z,0.08
2022-11-15T13:18:46.173Z,0.51